createdAt,value
2019-01-16T00:00:19.230Z,5.75
2019-01-16T00:03:05.041Z,12.47
2019-01-16T00:05:58.842Z,6.95
2019-01-16T00:08:40.985Z,8.53
2019-01-16T00:11:36.321Z,7.12
2019-01-16T00:14:28.657Z,5.80
2019-01-16T00:17:17.273Z,8.08
2019-01-16T00:20:19.826Z,8.87
2019-01-16T00:23:11.929Z,7.30
2019-01-16T00:26:20.496Z,7.53
2019-01-16T00:29:11.649Z,9.23
2019-01-16T00:32:00.637Z,5.83
2019-01-16T00:34:50.079Z,7.50
2019-01-16T00:37:46.878Z,12.35
2019-01-16T00:40:40.372Z,9.57
2019-01-16T00:43:29.882Z,8.98
2019-01-16T00:46:19.242Z,7.60
2019-01-16T00:49:13.157Z,8.55
2019-01-16T00:52:03.618Z,8.70
2019-01-16T00:54:54.371Z,8.55
2019-01-16T00:58:03.188Z,7.60
2019-01-16T01:00:59.457Z,7.47
2019-01-16T01:03:44.322Z,8.97
2019-01-16T01:06:26.821Z,7.87
2019-01-16T01:09:10.434Z,7.93
2019-01-16T01:11:58.562Z,12.80
2019-01-16T01:14:51.835Z,8.73
2019-01-16T01:17:36.126Z,8.43
2019-01-16T01:20:35.169Z,11.15
2019-01-16T01:23:24.527Z,9.00
2019-01-16T01:26:06.970Z,9.93
2019-01-16T01:28:57.525Z,7.37
2019-01-16T01:31:51.119Z,12.03
2019-01-16T01:34:37.023Z,8.10
2019-01-16T01:37:36.919Z,10.40
2019-01-16T01:40:27.835Z,6.63
2019-01-16T01:43:36.710Z,10.10
2019-01-16T01:46:25.761Z,10.80
2019-01-16T01:49:05.948Z,6.67
2019-01-16T01:51:55.162Z,7.17
2019-01-16T01:54:57.718Z,5.97
2019-01-16T01:57:51.483Z,8.10
2019-01-16T02:00:49.601Z,6.90
2019-01-16T02:03:52.452Z,7.10
2019-01-16T02:06:40.650Z,7.17
2019-01-16T02:09:23.921Z,11.73
2019-01-16T02:12:17.424Z,8.55
2019-01-16T02:15:02.031Z,7.53
2019-01-16T02:17:58.664Z,10.23
2019-01-16T02:20:46.803Z,9.70
2019-01-16T02:23:36.252Z,8.25
2019-01-16T02:26:27.007Z,7.05
2019-01-16T02:29:17.739Z,9.18
2019-01-16T02:32:11.015Z,6.90
2019-01-16T02:35:07.644Z,7.90
2019-01-16T02:37:58.135Z,10.00
2019-01-16T02:40:48.589Z,9.83
2019-01-16T02:43:48.190Z,6.55
2019-01-16T02:46:39.742Z,7.83
2019-01-16T02:49:30.331Z,6.37
2019-01-16T02:52:30.077Z,7.73
2019-01-16T02:55:18.890Z,6.10
2019-01-16T02:58:08.110Z,6.30
2019-01-16T03:01:10.611Z,8.40
2019-01-16T03:04:00.071Z,7.57
2019-01-16T03:06:50.825Z,7.42
2019-01-16T03:09:41.288Z,9.07
2019-01-16T03:12:30.766Z,7.47
2019-01-16T03:15:21.548Z,6.35
2019-01-16T03:18:12.031Z,7.13
2019-01-16T03:21:13.692Z,8.93
2019-01-16T03:24:07.236Z,5.10
2019-01-16T03:26:53.229Z,8.93
2019-01-16T03:29:49.583Z,9.93
2019-01-16T03:32:40.101Z,9.00
2019-01-16T03:35:24.604Z,8.50
2019-01-16T03:38:14.827Z,11.77
2019-01-16T03:40:59.761Z,8.67
2019-01-16T03:44:00.166Z,9.27
2019-01-16T03:46:53.524Z,8.60
2019-01-16T03:49:53.301Z,7.30
2019-01-16T03:52:46.531Z,8.70
2019-01-16T03:55:34.123Z,6.57
2019-01-16T03:58:21.700Z,9.23
2019-01-16T04:01:11.227Z,10.33
2019-01-16T04:04:20.288Z,13.60
2019-01-16T04:07:10.776Z,9.90
2019-01-16T04:10:10.338Z,5.00
2019-01-16T04:13:00.870Z,8.97
2019-01-16T04:16:03.344Z,8.00
2019-01-16T04:19:09.300Z,7.35
2019-01-16T04:22:05.522Z,9.20
2019-01-16T04:24:43.400Z,8.10
2019-01-16T04:27:26.696Z,7.87
2019-01-16T04:30:18.693Z,6.87
2019-01-16T04:33:01.545Z,7.13
2019-01-16T04:35:58.120Z,8.07
2019-01-16T04:38:48.586Z,7.23
2019-01-16T04:41:51.455Z,8.60
2019-01-16T04:44:40.801Z,8.97
2019-01-16T04:47:37.946Z,7.70
2019-01-16T04:50:20.103Z,11.48
2019-01-16T04:53:19.924Z,10.53
2019-01-16T04:56:16.750Z,12.58
2019-01-16T04:59:03.437Z,8.18
2019-01-16T05:02:06.060Z,8.95
2019-01-16T05:04:57.909Z,9.45
2019-01-16T05:07:55.167Z,9.73
2019-01-16T05:10:45.898Z,10.18
2019-01-16T05:13:39.225Z,10.90
2019-01-16T05:16:22.540Z,11.20
2019-01-16T05:19:25.051Z,10.05
2019-01-16T05:22:18.650Z,10.60
2019-01-16T05:25:08.386Z,8.33
2019-01-16T05:27:59.115Z,10.80
2019-01-16T05:30:55.382Z,8.77
2019-01-16T05:33:39.961Z,10.73
2019-01-16T05:36:33.722Z,7.47
2019-01-16T05:39:24.909Z,11.75
2019-01-16T05:42:15.397Z,11.50
2019-01-16T05:45:09.123Z,11.38
2019-01-16T05:47:58.777Z,10.20
2019-01-16T05:50:40.257Z,9.73
2019-01-16T05:53:34.022Z,12.30
2019-01-16T05:56:26.583Z,9.95
2019-01-16T05:59:26.186Z,10.63
2019-01-16T06:02:29.086Z,11.18
2019-01-16T06:05:11.608Z,18.07
2019-01-16T06:08:17.429Z,13.48
2019-01-16T06:11:14.911Z,10.43
2019-01-16T06:14:14.491Z,13.75
2019-01-16T06:17:11.554Z,12.10
2019-01-16T06:20:12.749Z,11.43
2019-01-16T06:23:11.970Z,9.40
2019-01-16T06:26:17.812Z,12.40
2019-01-16T06:29:07.222Z,11.68
2019-01-16T06:32:04.103Z,20.52
2019-01-16T06:34:43.946Z,12.05
2019-01-16T06:37:50.132Z,12.33
2019-01-16T06:40:50.994Z,11.50
2019-01-16T06:43:46.679Z,9.55
2019-01-16T06:46:55.573Z,14.47
2019-01-16T06:49:46.346Z,14.40
2019-01-16T06:52:34.943Z,17.57
2019-01-16T06:55:44.599Z,10.18
2019-01-16T06:58:37.127Z,12.37
2019-01-16T07:01:36.727Z,11.50
2019-01-16T07:04:27.502Z,11.73
2019-01-16T07:07:16.855Z,11.57
2019-01-16T07:10:06.032Z,9.78
2019-01-16T07:13:08.848Z,9.00
2019-01-16T07:16:08.772Z,9.13
2019-01-16T07:18:53.526Z,9.85
2019-01-16T07:21:52.429Z,10.05
2019-01-16T07:24:57.899Z,11.35
2019-01-16T07:27:50.287Z,10.13
2019-01-16T07:30:59.070Z,11.87
2019-01-16T07:33:42.097Z,11.12
2019-01-16T07:36:31.485Z,9.30
2019-01-16T07:39:22.821Z,10.33
2019-01-16T07:42:12.977Z,10.35
2019-01-16T07:45:04.394Z,11.80
2019-01-16T07:48:01.237Z,7.72
2019-01-16T07:50:58.296Z,8.43
2019-01-16T07:53:39.621Z,9.03
2019-01-16T07:56:37.564Z,8.80
2019-01-16T07:59:27.591Z,10.90
2019-01-16T08:02:17.387Z,9.40
2019-01-16T08:05:07.131Z,9.03
2019-01-16T08:08:12.848Z,10.20
2019-01-16T08:11:00.321Z,12.15
2019-01-16T08:14:00.527Z,9.05
2019-01-16T08:17:06.861Z,17.20
2019-01-16T08:19:56.104Z,11.20
2019-01-16T08:22:45.623Z,10.68
2019-01-16T08:25:36.088Z,9.20
2019-01-16T08:28:26.781Z,10.43
2019-01-16T08:31:07.136Z,9.95
2019-01-16T08:34:14.264Z,11.40
2019-01-16T08:37:03.386Z,10.68
2019-01-16T08:39:53.130Z,9.20
2019-01-16T08:42:42.494Z,8.27
2019-01-16T08:45:39.861Z,8.38
2019-01-16T08:48:24.589Z,9.03
2019-01-16T08:51:38.292Z,8.57
2019-01-16T08:54:27.805Z,10.72
2019-01-16T08:57:12.239Z,10.27
2019-01-16T09:00:06.050Z,8.90
2019-01-16T09:03:06.518Z,11.97
2019-01-16T09:06:00.220Z,9.87
2019-01-16T09:08:49.225Z,11.23
2019-01-16T09:11:39.774Z,10.97
2019-01-16T09:14:30.216Z,13.80
2019-01-16T09:17:49.254Z,9.10
2019-01-16T09:20:40.108Z,12.77
2019-01-16T09:23:25.713Z,12.93
2019-01-16T09:26:10.447Z,10.47
2019-01-16T09:29:00.894Z,10.50
2019-01-16T09:31:50.960Z,14.77
2019-01-16T09:34:33.887Z,13.40
2019-01-16T09:37:36.483Z,11.60
2019-01-16T09:40:33.363Z,10.20
2019-01-16T09:43:22.615Z,11.25
2019-01-16T09:46:12.291Z,8.70
2019-01-16T09:49:13.732Z,13.38
2019-01-16T09:52:10.256Z,10.72
2019-01-16T09:55:18.324Z,9.50
2019-01-16T09:58:07.586Z,10.63
2019-01-16T10:01:16.530Z,9.18
2019-01-16T10:04:05.694Z,10.23
2019-01-16T10:07:08.288Z,9.20
2019-01-16T10:10:02.169Z,9.43
2019-01-16T10:12:52.310Z,11.20
2019-01-16T10:15:39.456Z,10.48
2019-01-16T10:18:42.222Z,9.97
2019-01-16T10:21:29.862Z,14.37
2019-01-16T10:24:19.239Z,12.03
2019-01-16T10:27:15.796Z,12.40
2019-01-16T10:30:06.268Z,12.17
2019-01-16T10:33:15.578Z,11.10
2019-01-16T10:35:55.803Z,13.00
2019-01-16T10:39:01.375Z,11.70
2019-01-16T10:41:57.726Z,13.43
2019-01-16T10:45:00.535Z,13.27
2019-01-16T10:48:01.064Z,13.17
2019-01-16T10:51:03.336Z,12.70
2019-01-16T10:53:41.375Z,11.73
2019-01-16T10:56:29.620Z,12.20
2019-01-16T10:59:23.102Z,11.63
2019-01-16T11:02:13.762Z,10.43
2019-01-16T11:05:04.167Z,10.60
2019-01-16T11:08:03.869Z,12.07
2019-01-16T11:10:54.311Z,11.40
2019-01-16T11:13:44.487Z,16.57
2019-01-16T11:16:34.107Z,10.80
2019-01-16T11:19:23.753Z,11.10
2019-01-16T11:22:14.059Z,10.30
2019-01-16T11:25:10.493Z,9.07
2019-01-16T11:28:08.294Z,9.30
2019-01-16T11:30:53.393Z,10.93
2019-01-16T11:33:46.905Z,11.77
2019-01-16T11:36:36.434Z,10.23
2019-01-16T11:39:36.493Z,11.47
2019-01-16T11:42:25.850Z,11.03
2019-01-16T11:45:15.230Z,9.33
2019-01-16T11:48:11.252Z,9.63
2019-01-16T11:51:00.324Z,13.27
2019-01-16T11:53:49.412Z,9.93
2019-01-16T11:56:53.575Z,12.17
2019-01-16T11:59:43.997Z,8.07
2019-01-16T12:02:30.335Z,10.37
2019-01-16T12:05:29.096Z,12.00
2019-01-16T12:08:18.182Z,11.30
2019-01-16T12:11:09.579Z,9.77
2019-01-16T12:14:04.248Z,9.97
2019-01-16T12:17:01.952Z,12.10
2019-01-16T12:19:52.665Z,11.53
2019-01-16T12:22:41.941Z,8.57
2019-01-16T12:25:41.687Z,10.23
2019-01-16T12:28:32.113Z,9.23
2019-01-16T12:31:15.879Z,8.90
2019-01-16T12:34:08.399Z,10.90
2019-01-16T12:37:14.155Z,10.37
2019-01-16T12:40:02.941Z,14.10
2019-01-16T12:42:57.445Z,12.73
2019-01-16T12:45:40.396Z,10.63
2019-01-16T12:48:32.007Z,10.90
2019-01-16T12:51:22.441Z,8.40
2019-01-16T12:54:08.597Z,8.77
2019-01-16T12:57:08.021Z,12.17
2019-01-16T13:00:10.524Z,9.03
2019-01-16T13:02:48.664Z,12.07
2019-01-16T13:05:39.159Z,9.63
2019-01-16T13:08:38.741Z,9.40
2019-01-16T13:11:39.902Z,8.97
2019-01-16T13:14:22.964Z,11.50
2019-01-16T13:17:16.415Z,9.70
2019-01-16T13:20:07.133Z,8.00
2019-01-16T13:22:53.399Z,10.20
2019-01-16T13:25:53.228Z,11.10
2019-01-16T13:28:48.914Z,11.17
2019-01-16T13:31:48.565Z,8.90
2019-01-16T13:34:45.258Z,11.40
2019-01-16T13:37:34.402Z,11.97
2019-01-16T13:40:28.392Z,12.40
2019-01-16T13:43:21.838Z,12.10
2019-01-16T13:46:13.839Z,10.53
2019-01-16T13:49:07.103Z,10.80
2019-01-16T13:52:18.884Z,12.27
2019-01-16T13:55:08.327Z,11.50
2019-01-16T13:58:02.743Z,11.60
2019-01-16T14:00:56.887Z,10.90
2019-01-16T14:03:53.223Z,11.57
2019-01-16T14:06:52.211Z,11.00
2019-01-16T14:09:48.863Z,10.67
2019-01-16T14:12:39.326Z,11.63
2019-01-16T14:15:40.606Z,12.00
2019-01-16T14:18:22.908Z,9.47
2019-01-16T14:21:12.310Z,9.67
2019-01-16T14:24:01.465Z,8.07
2019-01-16T14:26:57.886Z,9.30
2019-01-16T14:29:48.336Z,11.30
2019-01-16T14:32:37.897Z,8.90
2019-01-16T14:35:37.628Z,10.10
2019-01-16T14:38:30.846Z,12.60
2019-01-16T14:41:30.381Z,10.33
2019-01-16T14:44:31.545Z,11.80
2019-01-16T14:47:40.034Z,10.60
2019-01-16T14:50:29.438Z,10.50
2019-01-16T14:53:12.078Z,15.37
2019-01-16T14:55:56.307Z,10.80
2019-01-16T14:58:38.825Z,15.17
2019-01-16T15:01:27.889Z,13.50
2019-01-16T15:04:15.816Z,10.83
2019-01-16T15:06:57.999Z,18.80
2019-01-16T15:09:47.283Z,12.47
2019-01-16T15:12:36.445Z,10.93
2019-01-16T15:15:30.345Z,10.63
2019-01-16T15:18:19.483Z,10.67
2019-01-16T15:21:08.579Z,11.60
2019-01-16T15:23:54.418Z,10.77
2019-01-16T15:26:40.860Z,10.97
2019-01-16T15:29:34.350Z,9.73
2019-01-16T15:32:16.697Z,12.10
2019-01-16T15:35:01.675Z,17.13
2019-01-16T15:37:46.285Z,13.17
2019-01-16T15:40:34.603Z,13.93
2019-01-16T15:43:40.540Z,13.50
2019-01-16T15:46:35.013Z,15.50
2019-01-16T15:49:28.223Z,13.30
2019-01-16T15:52:16.320Z,13.17
2019-01-16T15:55:16.041Z,12.27
2019-01-16T15:57:57.270Z,17.33
2019-01-16T16:00:47.710Z,10.57
2019-01-16T16:03:35.866Z,14.87
2019-01-16T16:06:33.493Z,12.17
2019-01-16T16:09:45.411Z,12.87
2019-01-16T16:12:34.686Z,12.23
2019-01-16T16:15:15.851Z,11.93
2019-01-16T16:18:18.515Z,11.20
2019-01-16T16:21:16.480Z,11.50
2019-01-16T16:24:06.899Z,12.50
2019-01-16T16:26:56.291Z,10.47
2019-01-16T16:29:56.266Z,12.10
2019-01-16T16:32:56.882Z,11.10
2019-01-16T16:35:56.306Z,11.93
2019-01-16T16:38:54.569Z,10.93
2019-01-16T16:41:43.519Z,9.77
2019-01-16T16:44:26.731Z,9.60
2019-01-16T16:47:20.177Z,9.03
2019-01-16T16:50:16.582Z,10.83
2019-01-16T16:53:03.441Z,10.53
2019-01-16T16:55:46.190Z,11.50
2019-01-16T16:58:54.763Z,15.00
2019-01-16T17:01:42.061Z,13.63
2019-01-16T17:04:45.384Z,15.33
2019-01-16T17:07:48.202Z,18.17
2019-01-16T17:10:40.422Z,16.13
2019-01-16T17:13:30.886Z,16.47
2019-01-16T17:16:21.347Z,15.97
2019-01-16T17:19:17.863Z,24.80
2019-01-16T17:22:05.858Z,21.30
2019-01-16T17:24:55.164Z,19.53
2019-01-16T17:27:57.790Z,16.60
2019-01-16T17:30:47.267Z,19.00
2019-01-16T17:33:56.624Z,14.28
2019-01-16T17:36:47.476Z,17.82
2019-01-16T17:39:36.877Z,20.70
2019-01-16T17:42:35.607Z,19.45
2019-01-16T17:45:27.229Z,26.30
2019-01-16T17:48:21.169Z,21.25
2019-01-16T17:51:10.841Z,29.85
2019-01-16T17:54:00.097Z,23.27
2019-01-16T17:56:49.417Z,27.00
2019-01-16T17:59:47.299Z,25.62
2019-01-16T18:02:49.906Z,22.52
2019-01-16T18:05:46.634Z,21.83
2019-01-16T18:08:48.370Z,23.57
2019-01-16T18:11:45.439Z,21.05
2019-01-16T18:14:33.002Z,22.35
2019-01-16T18:17:33.126Z,27.22
2019-01-16T18:20:29.747Z,21.85
2019-01-16T18:23:11.470Z,22.60
2019-01-16T18:26:14.420Z,26.65
2019-01-16T18:29:08.295Z,26.10
2019-01-16T18:31:58.184Z,25.77
2019-01-16T18:34:51.894Z,29.63
2019-01-16T18:37:36.894Z,28.15
2019-01-16T18:40:23.616Z,29.77
2019-01-16T18:43:13.316Z,24.43
2019-01-16T18:46:03.138Z,26.07
2019-01-16T18:48:57.227Z,32.85
2019-01-16T18:51:46.781Z,26.37
2019-01-16T18:54:36.699Z,32.78
2019-01-16T18:57:42.808Z,29.32
2019-01-16T19:00:29.061Z,33.75
2019-01-16T19:03:19.762Z,33.55
2019-01-16T19:06:11.970Z,28.57
2019-01-16T19:09:01.471Z,28.40
2019-01-16T19:11:46.096Z,27.20
2019-01-16T19:14:35.436Z,30.72
2019-01-16T19:17:17.344Z,26.77
2019-01-16T19:20:15.879Z,31.12
2019-01-16T19:22:59.239Z,38.08
2019-01-16T19:25:52.991Z,32.88
2019-01-16T19:28:40.372Z,32.03
2019-01-16T19:31:31.759Z,34.35
2019-01-16T19:34:22.546Z,39.88
2019-01-16T19:37:11.988Z,31.27
2019-01-16T19:39:54.909Z,34.43
2019-01-16T19:42:49.189Z,27.70
2019-01-16T19:45:40.237Z,29.50
2019-01-16T19:48:30.961Z,36.90
2019-01-16T19:51:21.701Z,47.75
2019-01-16T19:54:15.448Z,52.73
2019-01-16T19:57:24.721Z,42.33
2019-01-16T20:00:07.906Z,43.20
2019-01-16T20:02:57.856Z,59.08
2019-01-16T20:06:08.640Z,42.88
2019-01-16T20:09:17.638Z,30.02
2019-01-16T20:12:22.790Z,36.23
2019-01-16T20:15:11.693Z,32.08
2019-01-16T20:18:01.319Z,30.17
2019-01-16T20:20:56.361Z,48.23
2019-01-16T20:23:46.024Z,31.07
2019-01-16T20:26:36.746Z,34.00
2019-01-16T20:29:24.719Z,37.63
2019-01-16T20:32:14.438Z,35.20
2019-01-16T20:35:09.902Z,35.73
2019-01-16T20:37:56.673Z,34.50
2019-01-16T20:40:47.356Z,37.05
2019-01-16T20:43:54.275Z,36.40
2019-01-16T20:46:43.990Z,37.38
2019-01-16T20:49:32.253Z,29.23
2019-01-16T20:52:22.940Z,27.00
2019-01-16T20:55:12.291Z,32.33
2019-01-16T20:58:10.806Z,32.05
2019-01-16T21:01:19.682Z,36.58
2019-01-16T21:04:08.999Z,51.55
2019-01-16T21:07:03.577Z,43.90
2019-01-16T21:10:09.524Z,41.77
2019-01-16T21:13:00.214Z,37.90
2019-01-16T21:15:57.813Z,39.48
2019-01-16T21:18:43.158Z,33.28
2019-01-16T21:21:32.559Z,28.73
2019-01-16T21:24:26.391Z,27.85
2019-01-16T21:27:32.240Z,29.75
2019-01-16T21:30:29.048Z,26.87
2019-01-16T21:33:16.705Z,31.57
2019-01-16T21:36:07.425Z,32.98
2019-01-16T21:39:13.278Z,30.20
2019-01-16T21:42:04.013Z,32.42
2019-01-16T21:45:03.975Z,31.20
2019-01-16T21:47:54.701Z,32.28
2019-01-16T21:50:46.456Z,24.43
2019-01-16T21:53:30.615Z,25.65
2019-01-16T21:56:36.484Z,24.45
2019-01-16T21:59:29.985Z,24.00
2019-01-16T22:05:34.301Z,25.68
2019-01-16T22:08:25.178Z,24.00
2019-01-16T22:11:08.951Z,27.82
2019-01-16T22:14:02.519Z,23.92
2019-01-16T22:17:09.806Z,24.87
2019-01-16T22:20:11.180Z,22.82
2019-01-16T22:23:06.798Z,23.70
2019-01-16T22:26:10.291Z,28.67
2019-01-16T22:29:12.422Z,47.53
2019-01-16T22:31:53.973Z,27.50
2019-01-16T22:34:43.372Z,24.80
2019-01-16T22:37:24.017Z,26.77
2019-01-16T22:40:10.820Z,25.65
2019-01-16T22:42:58.480Z,30.35
2019-01-16T22:46:12.793Z,29.77
2019-01-16T22:48:55.567Z,29.15
2019-01-16T22:51:43.504Z,28.20
2019-01-16T22:54:32.892Z,24.43
2019-01-16T22:57:21.514Z,26.45
2019-01-16T23:00:07.552Z,41.05
2019-01-16T23:02:51.424Z,26.65
2019-01-16T23:05:46.224Z,27.82
2019-01-16T23:08:34.788Z,26.15
2019-01-16T23:11:15.035Z,29.00
2019-01-16T23:14:05.743Z,23.95
2019-01-16T23:16:53.451Z,24.90
2019-01-16T23:19:34.191Z,28.90
2019-01-16T23:22:18.273Z,19.30
2019-01-16T23:25:18.329Z,21.62
2019-01-16T23:28:02.208Z,21.45
2019-01-16T23:30:52.570Z,24.52
2019-01-16T23:33:43.308Z,27.50
2019-01-16T23:36:36.829Z,27.77
2019-01-16T23:39:34.874Z,17.98
2019-01-16T23:42:37.488Z,20.23
2019-01-16T23:45:23.615Z,19.52
2019-01-16T23:48:20.367Z,16.90
2019-01-16T23:51:20.392Z,19.35
2019-01-16T23:54:23.134Z,21.05
2019-01-16T23:57:23.950Z,18.32
